Time;durP1;ratioP1;P1;durP2;ratioP2;P2;SDS_P1;SDS_P2;PMS_P1;PMS_P2;Temp;Humidity;BMP_temperature;BMP_pressure;BME280_temperature;BME280_humidity;BME280_pressure;Samples;Min_cycle;Max_cycle;Signal;HPM_P1;HPM_P2
2021/01/07 00:01:10;;;;;;;0.90;0.90;;;4.00;99.90;;;;;;5004334;28;20622;-81
2021/01/07 00:03:38;;;;;;;1.33;0.57;;;4.00;99.90;;;;;;5020360;28;20701;-81
2021/01/07 00:06:06;;;;;;;1.20;1.10;;;4.10;99.90;;;;;;5011336;28;20566;-81
2021/01/07 00:08:32;;;;;;;0.50;0.50;;;4.00;99.90;;;;;;5018117;28;20293;-81
2021/01/07 00:10:57;;;;;;;1.90;1.17;;;4.10;99.90;;;;;;5008828;28;20410;-79
2021/01/07 00:13:23;;;;;;;1.60;0.90;;;4.00;99.90;;;;;;5004091;28;20188;-81
2021/01/07 00:15:49;;;;;;;0.77;0.77;;;4.10;99.90;;;;;;5009670;28;20193;-81
2021/01/07 00:18:14;;;;;;;0.77;0.77;;;4.10;99.90;;;;;;5014972;28;20223;-80
2021/01/07 00:20:40;;;;;;;1.20;1.10;;;4.10;99.90;;;;;;5011403;28;20212;-81
2021/01/07 00:23:05;;;;;;;0.20;0.20;;;4.10;99.90;;;;;;5008682;28;20277;-81
2021/01/07 00:25:31;;;;;;;1.27;0.83;;;4.10;99.90;;;;;;5008187;28;20266;-79
2021/01/07 00:27:56;;;;;;;1.17;1.07;;;4.10;99.90;;;;;;5010188;28;20288;-79
2021/01/07 00:30:22;;;;;;;0.60;0.53;;;4.10;99.90;;;;;;5011136;28;20746;-81
2021/01/07 00:32:47;;;;;;;0.63;0.57;;;4.10;99.90;;;;;;5017328;28;20184;-81
2021/01/07 00:35:13;;;;;;;0.33;0.33;;;4.10;99.90;;;;;;5009822;28;20194;-81
2021/01/07 00:37:39;;;;;;;0.97;0.93;;;4.10;99.90;;;;;;5020804;28;20590;-81
2021/01/07 00:40:05;;;;;;;1.40;0.80;;;4.00;99.90;;;;;;5010288;28;20191;-81
2021/01/07 00:42:31;;;;;;;0.27;0.23;;;4.10;99.90;;;;;;5022075;28;20218;-81
2021/01/07 00:44:56;;;;;;;0.70;0.70;;;4.00;99.90;;;;;;5011269;28;20199;-79
2021/01/07 00:47:22;;;;;;;0.20;0.20;;;4.10;99.90;;;;;;5013979;28;20204;-81
2021/01/07 00:49:48;;;;;;;5.53;0.57;;;4.00;99.90;;;;;;5009606;28;20213;-81
2021/01/07 00:52:13;;;;;;;0.40;0.40;;;4.00;99.90;;;;;;5008312;28;20192;-81
2021/01/07 00:54:39;;;;;;;0.67;0.67;;;3.90;99.90;;;;;;5009875;28;20191;-81
2021/01/07 00:57:05;;;;;;;0.90;0.77;;;4.00;99.90;;;;;;5010167;28;20212;-81
2021/01/07 00:59:30;;;;;;;1.13;0.60;;;4.00;99.90;;;;;;5013203;28;20827;-80
2021/01/07 01:01:56;;;;;;;0.63;0.57;;;4.10;99.90;;;;;;5011821;28;20300;-81
2021/01/07 01:04:21;;;;;;;0.47;0.47;;;4.20;99.90;;;;;;5013639;28;20268;-81
2021/01/07 01:06:47;;;;;;;0.90;0.67;;;4.20;99.90;;;;;;5022645;28;20188;-81
2021/01/07 01:09:13;;;;;;;0.10;0.10;;;4.10;99.90;;;;;;5016131;28;20218;-81
2021/01/07 01:11:46;;;;;;;1.27;0.30;;;4.10;99.90;;;;;;5018118;28;20191;-81
2021/01/07 01:14:16;;;;;;;0.50;0.50;;;3.90;99.90;;;;;;5013941;28;20183;-81
2021/01/07 01:16:42;;;;;;;1.27;0.80;;;4.00;99.90;;;;;;5015092;28;20257;-81
2021/01/07 01:19:07;;;;;;;0.77;0.70;;;4.10;99.90;;;;;;5013719;28;20567;-82
2021/01/07 01:21:33;;;;;;;0.60;0.60;;;4.20;99.90;;;;;;5017059;28;20277;-82
2021/01/07 01:23:59;;;;;;;1.07;0.53;;;4.20;99.90;;;;;;5013490;28;20212;-81
2021/01/07 01:26:25;;;;;;;2.30;0.50;;;4.10;99.90;;;;;;5017147;28;20191;-80
2021/01/07 01:28:51;;;;;;;0.60;0.60;;;4.10;99.90;;;;;;5013343;28;20290;-80
2021/01/07 01:31:16;;;;;;;0.47;0.47;;;4.10;99.90;;;;;;5015045;28;20668;-81
2021/01/07 01:33:42;;;;;;;0.83;0.47;;;4.00;99.90;;;;;;5019343;28;20195;-81
2021/01/07 01:36:08;;;;;;;0.37;0.37;;;4.10;99.90;;;;;;5013365;28;20196;-80
2021/01/07 01:38:33;;;;;;;0.47;0.33;;;4.20;99.90;;;;;;5017907;28;20346;-80
2021/01/07 01:41:03;;;;;;;0.90;0.77;;;4.30;99.90;;;;;;5012135;28;20211;-82
2021/01/07 01:43:29;;;;;;;5.60;0.60;;;4.30;99.90;;;;;;5013513;28;20192;-81
2021/01/07 01:45:55;;;;;;;0.67;0.67;;;4.30;99.90;;;;;;5011531;28;20183;-81
2021/01/07 01:48:21;;;;;;;1.27;0.63;;;4.30;99.90;;;;;;5024912;28;20200;-81
2021/01/07 01:50:47;;;;;;;0.40;0.40;;;4.30;99.90;;;;;;5020353;28;20185;-81
2021/01/07 01:53:12;;;;;;;0.40;0.40;;;4.30;99.90;;;;;;5022912;28;20565;-81
2021/01/07 01:55:40;;;;;;;0.50;0.50;;;4.40;99.90;;;;;;5012004;28;20188;-81
2021/01/07 01:58:08;;;;;;;0.57;0.57;;;4.40;99.90;;;;;;5020186;28;20206;-81
2021/01/07 02:00:34;;;;;;;0.30;0.30;;;4.40;99.90;;;;;;5013825;28;20239;-81
2021/01/07 02:02:59;;;;;;;1.90;0.90;;;4.30;99.90;;;;;;5025414;28;20220;-81
2021/01/07 02:05:25;;;;;;;0.63;0.60;;;4.30;99.90;;;;;;5014131;28;20243;-81
2021/01/07 02:07:52;;;;;;;0.67;0.67;;;4.30;99.90;;;;;;5022639;28;20716;-81
2021/01/07 02:10:18;;;;;;;2.00;0.50;;;4.30;99.90;;;;;;5019760;28;20193;-81
2021/01/07 02:12:46;;;;;;;0.80;0.80;;;4.20;99.90;;;;;;5019528;28;20283;-81
2021/01/07 02:15:13;;;;;;;1.93;1.07;;;4.20;99.90;;;;;;5013189;28;20190;-81
2021/01/07 02:17:39;;;;;;;0.70;0.70;;;4.20;99.90;;;;;;5014265;28;20224;-81
2021/01/07 02:20:10;;;;;;;0.50;0.47;;;4.20;99.90;;;;;;5011638;28;20180;-81
2021/01/07 02:22:35;;;;;;;0.83;0.63;;;4.10;99.90;;;;;;5014687;28;20203;-81
2021/01/07 02:25:02;;;;;;;4.83;1.47;;;4.10;99.90;;;;;;5015379;28;20184;-82
2021/01/07 02:27:28;;;;;;;0.80;0.60;;;4.10;99.90;;;;;;5013554;28;20200;-80
2021/01/07 02:29:53;;;;;;;1.70;0.90;;;4.10;99.90;;;;;;5014553;28;20191;-82
2021/01/07 02:32:19;;;;;;;0.93;0.90;;;4.00;99.90;;;;;;5013221;28;20188;-81
2021/01/07 02:34:44;;;;;;;0.83;0.83;;;3.90;99.90;;;;;;5013438;28;20195;-81
2021/01/07 02:37:10;;;;;;;0.83;0.63;;;3.90;99.90;;;;;;5017284;28;20214;-81
2021/01/07 02:39:35;;;;;;;0.53;0.53;;;3.90;99.90;;;;;;5024065;28;20191;-82
2021/01/07 02:42:01;;;;;;;0.20;0.20;;;3.90;99.90;;;;;;5013746;28;20671;-81
2021/01/07 02:44:26;;;;;;;0.73;0.73;;;3.90;99.90;;;;;;5017444;28;20624;-81
2021/01/07 02:46:53;;;;;;;1.97;0.83;;;3.90;99.90;;;;;;5008256;28;20199;-81
2021/01/07 02:49:19;;;;;;;0.33;0.33;;;3.90;99.90;;;;;;5012926;28;20179;-80
2021/01/07 02:51:45;;;;;;;1.13;0.57;;;4.00;99.90;;;;;;5012524;28;20183;-81
2021/01/07 02:54:11;;;;;;;0.67;0.47;;;3.90;99.90;;;;;;5009741;28;20187;-79
2021/01/07 02:56:36;;;;;;;0.40;0.40;;;3.90;99.90;;;;;;5014901;28;20257;-80
2021/01/07 02:59:02;;;;;;;0.90;0.67;;;3.80;99.90;;;;;;5014569;28;20187;-81
2021/01/07 03:01:28;;;;;;;1.07;0.43;;;3.90;99.90;;;;;;5017150;28;20204;-81
2021/01/07 03:03:56;;;;;;;0.40;0.20;;;3.90;99.90;;;;;;5013656;28;20190;-81
2021/01/07 03:06:23;;;;;;;0.30;0.30;;;3.90;99.90;;;;;;5019043;28;20267;-82
2021/01/07 03:08:49;;;;;;;0.20;0.20;;;3.90;99.90;;;;;;5014201;28;20207;-81
2021/01/07 03:11:14;;;;;;;0.27;0.27;;;3.90;99.90;;;;;;5018347;28;20201;-80
2021/01/07 03:13:40;;;;;;;0.67;0.67;;;4.00;99.90;;;;;;5011347;28;20188;-80
2021/01/07 03:16:05;;;;;;;0.33;0.33;;;4.00;99.90;;;;;;5016677;28;20199;-82
2021/01/07 03:18:31;;;;;;;1.00;0.43;;;4.00;99.90;;;;;;5012082;28;20229;-81
2021/01/07 03:20:57;;;;;;;0.63;0.57;;;4.00;99.90;;;;;;5010248;28;20219;-79
2021/01/07 03:23:22;;;;;;;3.20;0.40;;;4.00;99.90;;;;;;5007511;28;20666;-81
2021/01/07 03:25:48;;;;;;;0.30;0.30;;;4.00;99.90;;;;;;5012707;28;20184;-81
2021/01/07 03:28:13;;;;;;;2.93;0.33;;;4.10;99.90;;;;;;5011975;28;20254;-81
2021/01/07 03:30:39;;;;;;;0.30;0.30;;;4.00;99.90;;;;;;5017083;28;20192;-80
2021/01/07 03:33:05;;;;;;;0.20;0.10;;;4.00;99.90;;;;;;5021891;28;20217;-79
2021/01/07 03:35:30;;;;;;;1.20;0.43;;;4.00;99.90;;;;;;5018629;28;20201;-80
2021/01/07 03:37:56;;;;;;;0.20;0.20;;;4.00;99.90;;;;;;5015919;28;20264;-81
2021/01/07 03:40:21;;;;;;;0.20;0.20;;;3.80;99.90;;;;;;5014025;28;20656;-81
2021/01/07 03:42:47;;;;;;;0.10;0.10;;;3.80;99.90;;;;;;5018175;28;20193;-81
2021/01/07 03:45:13;;;;;;;0.40;0.20;;;3.90;99.90;;;;;;5010593;28;20272;-80
2021/01/07 03:47:39;;;;;;;0.27;0.27;;;4.00;99.90;;;;;;5015515;28;20203;-79
2021/01/07 03:50:05;;;;;;;0.33;0.33;;;4.00;99.90;;;;;;5009435;28;20715;-82
2021/01/07 03:52:30;;;;;;;1.70;0.43;;;4.10;99.90;;;;;;5011967;28;20191;-82
2021/01/07 03:54:56;;;;;;;0.97;0.97;;;4.00;99.90;;;;;;5012710;28;20958;-81
2021/01/07 03:57:22;;;;;;;0.30;0.30;;;4.00;99.90;;;;;;5013837;28;20687;-79
2021/01/07 03:59:47;;;;;;;0.97;0.83;;;4.00;99.90;;;;;;5010349;28;20698;-81
2021/01/07 04:02:13;;;;;;;4.03;0.83;;;4.00;99.90;;;;;;5011763;28;20212;-80
2021/01/07 04:04:38;;;;;;;0.60;0.37;;;3.90;99.90;;;;;;5018317;28;20210;-81
2021/01/07 04:07:04;;;;;;;0.37;0.30;;;4.00;99.90;;;;;;5026556;28;20679;-81
2021/01/07 04:09:29;;;;;;;0.50;0.37;;;3.90;99.90;;;;;;5010984;28;20183;-79
2021/01/07 04:11:55;;;;;;;0.03;0.03;;;3.90;99.90;;;;;;5022038;28;20206;-81
2021/01/07 04:14:20;;;;;;;1.20;0.70;;;3.90;99.90;;;;;;5007545;28;20202;-81
2021/01/07 04:16:46;;;;;;;0.73;0.60;;;4.00;99.90;;;;;;5010060;28;20283;-81
2021/01/07 04:19:12;;;;;;;0.47;0.30;;;4.00;99.90;;;;;;5013971;28;20196;-81
2021/01/07 04:21:45;;;;;;;0.90;0.57;;;4.00;99.90;;;;;;5015079;28;20215;-81
2021/01/07 04:24:15;;;;;;;1.10;0.93;;;3.90;99.90;;;;;;5015043;28;20197;-81
2021/01/07 04:26:42;;;;;;;0.70;0.70;;;3.90;99.90;;;;;;5009128;28;20279;-79
2021/01/07 04:29:08;;;;;;;0.50;0.50;;;4.00;99.90;;;;;;5014149;28;20182;-79
2021/01/07 04:31:34;;;;;;;1.20;0.57;;;3.90;99.90;;;;;;5010920;28;20188;-81
2021/01/07 04:33:59;;;;;;;0.60;0.60;;;3.90;99.90;;;;;;5010636;28;20721;-78
2021/01/07 04:36:25;;;;;;;0.43;0.43;;;3.90;99.90;;;;;;5012654;28;20192;-81
2021/01/07 04:38:50;;;;;;;2.00;1.33;;;3.90;99.90;;;;;;5017259;28;20615;-81
2021/01/07 04:41:16;;;;;;;0.60;0.47;;;3.80;99.90;;;;;;5014574;28;20219;-79
2021/01/07 04:43:42;;;;;;;2.30;2.07;;;3.80;99.90;;;;;;5013092;28;20191;-81
2021/01/07 04:46:07;;;;;;;1.50;1.30;;;3.80;99.90;;;;;;5013180;28;20181;-81
2021/01/07 04:48:36;;;;;;;0.57;0.57;;;3.70;99.90;;;;;;5010457;28;20974;-81
2021/01/07 04:51:05;;;;;;;0.57;0.57;;;3.70;99.90;;;;;;5017440;28;20626;-80
2021/01/07 04:53:31;;;;;;;0.20;0.20;;;3.70;99.90;;;;;;5022514;28;20238;-81
2021/01/07 04:55:57;;;;;;;0.93;0.80;;;3.70;99.90;;;;;;5011636;28;20205;-81
2021/01/07 04:58:22;;;;;;;0.70;0.70;;;3.60;99.90;;;;;;5010817;28;20244;-81
2021/01/07 05:00:48;;;;;;;1.37;0.70;;;3.60;99.90;;;;;;5016738;28;20581;-81
2021/01/07 05:03:21;;;;;;;1.23;0.33;;;3.70;99.90;;;;;;5010885;28;20203;-81
2021/01/07 05:05:52;;;;;;;0.10;0.10;;;3.70;99.90;;;;;;5021860;28;20187;-81
2021/01/07 05:08:18;;;;;;;0.87;0.67;;;3.70;99.90;;;;;;5010270;28;20230;-81
2021/01/07 05:10:47;;;;;;;0.20;0.20;;;3.70;99.90;;;;;;5011205;28;20214;-79
2021/01/07 05:13:17;;;;;;;1.03;0.83;;;3.70;99.90;;;;;;5010279;28;20238;-81
2021/01/07 05:15:43;;;;;;;0.50;0.50;;;3.60;99.90;;;;;;5007658;28;20618;-81
2021/01/07 05:18:09;;;;;;;2.20;0.70;;;3.70;99.90;;;;;;5002805;28;20219;-81
2021/01/07 05:20:34;;;;;;;0.60;0.60;;;3.70;99.90;;;;;;5020910;28;20187;-81
2021/01/07 05:23:01;;;;;;;1.57;1.10;;;3.80;99.90;;;;;;5009041;28;20552;-81
2021/01/07 05:25:29;;;;;;;3.67;1.10;;;3.70;99.90;;;;;;5014395;28;20181;-81
2021/01/07 05:28:03;;;;;;;0.33;0.33;;;3.60;99.90;;;;;;5002259;28;20246;-81
2021/01/07 05:30:30;;;;;;;1.70;1.00;;;3.60;99.90;;;;;;5009703;28;20189;-81
2021/01/07 05:33:01;;;;;;;1.33;1.07;;;3.60;99.90;;;;;;5003662;28;20192;-81
2021/01/07 05:35:27;;;;;;;0.30;0.30;;;3.80;99.90;;;;;;5012470;28;20267;-81
2021/01/07 05:37:53;;;;;;;0.73;0.73;;;3.80;99.90;;;;;;5012864;28;20310;-81
2021/01/07 05:40:21;;;;;;;1.17;0.73;;;3.80;99.90;;;;;;5003757;28;20622;-81
2021/01/07 05:42:47;;;;;;;0.63;0.63;;;3.90;99.90;;;;;;5018623;28;20208;-81
2021/01/07 05:45:17;;;;;;;4.00;1.10;;;3.80;99.90;;;;;;5008986;28;20659;-81
2021/01/07 05:47:44;;;;;;;1.57;0.40;;;3.90;99.90;;;;;;5008819;28;20290;-81
2021/01/07 05:50:10;;;;;;;0.70;0.50;;;3.80;99.90;;;;;;5014073;28;20185;-79
2021/01/07 05:52:44;;;;;;;0.20;0.20;;;3.90;99.90;;;;;;5013869;28;20254;-79
2021/01/07 05:55:15;;;;;;;0.30;0.30;;;3.90;99.90;;;;;;5013882;28;20179;-81
2021/01/07 05:57:41;;;;;;;0.10;0.10;;;3.70;99.90;;;;;;5016914;28;20204;-78
2021/01/07 06:00:17;;;;;;;0.40;0.40;;;3.50;99.90;;;;;;5023921;28;20290;-81
2021/01/07 06:02:44;;;;;;;0.17;0.17;;;3.60;99.90;;;;;;5015080;28;20238;-81
2021/01/07 06:05:12;;;;;;;1.40;0.67;;;3.70;99.90;;;;;;5012483;28;20183;-81
2021/01/07 06:07:39;;;;;;;0.40;0.40;;;3.70;99.90;;;;;;5013819;28;20207;-80
2021/01/07 06:10:09;;;;;;;0.73;0.30;;;3.70;99.90;;;;;;5007362;28;20184;-81
2021/01/07 06:12:36;;;;;;;0.50;0.43;;;3.70;99.90;;;;;;5013029;28;20187;-81
2021/01/07 06:15:04;;;;;;;0.17;0.17;;;3.70;99.90;;;;;;5023724;28;20635;-81
2021/01/07 06:17:31;;;;;;;0.50;0.50;;;3.50;99.90;;;;;;5003173;28;20225;-81
2021/01/07 06:19:57;;;;;;;0.40;0.40;;;3.60;99.90;;;;;;5018220;28;20842;-81
2021/01/07 06:22:23;;;;;;;0.20;0.20;;;3.70;99.90;;;;;;5011649;28;20214;-81
2021/01/07 06:24:54;;;;;;;0.83;0.80;;;3.70;99.90;;;;;;5016881;28;20179;-79
2021/01/07 06:27:31;;;;;;;0.13;0.10;;;3.80;99.90;;;;;;5011906;28;20199;-81
2021/01/07 06:30:03;;;;;;;1.03;0.40;;;3.80;99.90;;;;;;5013472;28;20682;-80
2021/01/07 06:32:29;;;;;;;0.23;0.23;;;3.70;99.90;;;;;;5013987;28;20805;-81
2021/01/07 06:34:57;;;;;;;1.47;1.37;;;3.70;99.90;;;;;;5012588;28;20191;-80
2021/01/07 06:37:30;;;;;;;0.77;0.37;;;3.70;99.90;;;;;;5022037;28;20206;-81
2021/01/07 06:39:58;;;;;;;0.20;0.20;;;3.70;99.90;;;;;;5012354;28;20287;-81
2021/01/07 06:42:23;;;;;;;0.67;0.67;;;3.70;99.90;;;;;;5026535;28;20264;-80
2021/01/07 06:44:51;;;;;;;1.17;1.07;;;3.70;99.90;;;;;;5011068;28;20550;-81
2021/01/07 06:47:20;;;;;;;0.20;0.20;;;3.80;99.90;;;;;;5017396;28;20230;-82
2021/01/07 06:49:48;;;;;;;0.60;0.30;;;3.80;99.90;;;;;;5011822;28;20271;-81
2021/01/07 06:52:14;;;;;;;0.17;0.10;;;3.90;99.90;;;;;;5015908;28;20725;-81
2021/01/07 06:54:45;;;;;;;0.30;0.30;;;3.90;99.90;;;;;;5011955;28;20187;-83
2021/01/07 06:57:13;;;;;;;0.30;0.30;;;3.90;99.90;;;;;;5016332;28;20245;-83
2021/01/07 06:59:59;;;;;;;0.73;0.73;;;3.90;99.90;;;;;;5023182;28;20180;-84
2021/01/07 07:02:26;;;;;;;0.27;0.27;;;3.90;99.90;;;;;;5013108;28;20237;-84
2021/01/07 07:05:08;;;;;;;0.73;0.73;;;3.90;99.90;;;;;;5012229;28;20179;-83
2021/01/07 07:07:34;;;;;;;0.20;0.20;;;3.90;99.90;;;;;;5024205;28;20283;-83
2021/01/07 07:10:17;;;;;;;0.80;0.70;;;3.90;99.90;;;;;;5012077;28;20271;-82
2021/01/07 07:12:48;;;;;;;0.57;0.57;;;3.80;99.90;;;;;;5016615;28;20187;-78
2021/01/07 07:15:14;;;;;;;1.13;0.73;;;3.70;99.90;;;;;;5011643;28;20198;-81
2021/01/07 07:17:41;;;;;;;1.37;0.77;;;3.80;99.90;;;;;;5016295;28;20249;-80
2021/01/07 07:20:07;;;;;;;0.77;0.40;;;3.80;99.90;;;;;;5027693;28;20193;-80
2021/01/07 07:22:43;;;;;;;0.10;0.10;;;3.90;99.90;;;;;;5005889;28;20311;-80
2021/01/07 07:25:10;;;;;;;0.57;0.57;;;3.80;99.90;;;;;;5013142;28;20187;-81
2021/01/07 07:27:56;;;;;;;2.43;0.77;;;3.80;99.90;;;;;;5012186;28;20208;-80
2021/01/07 07:30:29;;;;;;;0.90;0.87;;;3.90;99.90;;;;;;5017721;28;20195;-79
2021/01/07 07:32:56;;;;;;;0.43;0.37;;;3.90;99.90;;;;;;5012090;28;20192;-84
2021/01/07 07:35:29;;;;;;;0.87;0.87;;;4.00;99.90;;;;;;5011876;28;20230;-83
2021/01/07 07:37:55;;;;;;;1.63;1.53;;;4.00;99.90;;;;;;5015361;28;20204;-83
2021/01/07 07:40:34;;;;;;;0.30;0.30;;;3.90;99.90;;;;;;5007439;28;20193;-84
2021/01/07 07:43:01;;;;;;;0.60;0.60;;;3.90;99.90;;;;;;5011376;28;20675;-82
2021/01/07 07:45:27;;;;;;;1.50;0.57;;;3.90;99.90;;;;;;5012638;28;20234;-81
2021/01/07 07:47:53;;;;;;;0.40;0.37;;;4.00;99.90;;;;;;5009225;28;20242;-80
2021/01/07 07:50:21;;;;;;;1.43;1.37;;;3.90;99.90;;;;;;5017045;28;20212;-80
2021/01/07 07:52:47;;;;;;;0.37;0.33;;;3.90;99.90;;;;;;5010705;28;20237;-81
2021/01/07 07:55:13;;;;;;;0.10;0.10;;;3.90;99.90;;;;;;5010762;28;20196;-81
2021/01/07 07:57:48;;;;;;;1.27;0.90;;;3.90;99.90;;;;;;5013792;28;20204;-81
2021/01/07 08:00:15;;;;;;;0.37;0.37;;;3.90;99.90;;;;;;5009622;28;20212;-82
2021/01/07 08:02:43;;;;;;;0.30;0.30;;;4.00;99.90;;;;;;5010401;28;20215;-82
2021/01/07 08:05:09;;;;;;;2.00;1.43;;;4.00;99.90;;;;;;5026075;28;20215;-81
2021/01/07 08:07:35;;;;;;;0.77;0.77;;;4.10;99.90;;;;;;5010110;28;20208;-82
2021/01/07 08:10:08;;;;;;;0.70;0.70;;;4.20;99.90;;;;;;5007837;28;20191;-82
2021/01/07 08:12:35;;;;;;;0.20;0.20;;;4.20;99.90;;;;;;5010383;28;20280;-80
2021/01/07 08:15:01;;;;;;;3.00;0.63;;;4.10;99.90;;;;;;5010216;28;20219;-81
2021/01/07 08:17:26;;;;;;;0.77;0.60;;;4.20;99.90;;;;;;5011337;28;20223;-83
2021/01/07 08:19:52;;;;;;;0.60;0.60;;;4.20;99.90;;;;;;5010878;28;20239;-80
2021/01/07 08:22:27;;;;;;;0.67;0.57;;;4.10;99.90;;;;;;5042608;23;20226;-84
2021/01/07 08:24:57;;;;;;;0.87;0.73;;;4.10;99.90;;;;;;5028705;28;20174;-83
2021/01/07 08:27:27;;;;;;;1.53;0.63;;;4.10;99.90;;;;;;5023881;28;20186;-84
2021/01/07 08:30:00;;;;;;;1.50;0.90;;;4.00;99.90;;;;;;5024903;28;20678;-84
2021/01/07 08:32:34;;;;;;;1.27;0.87;;;4.00;99.90;;;;;;5005357;28;20199;-85
2021/01/07 08:35:06;;;;;;;0.63;0.47;;;4.10;99.90;;;;;;5009417;28;20579;-84
2021/01/07 08:37:33;;;;;;;0.77;0.63;;;4.00;99.90;;;;;;5005982;28;20326;-83
2021/01/07 08:40:07;;;;;;;0.27;0.27;;;4.00;99.90;;;;;;5004811;28;20195;-86
2021/01/07 08:42:36;;;;;;;0.20;0.20;;;4.00;99.90;;;;;;5002407;28;20217;-86
2021/01/07 08:45:02;;;;;;;0.70;0.70;;;4.00;99.90;;;;;;5000648;28;20664;-87
2021/01/07 08:47:31;;;;;;;2.10;1.73;;;4.00;99.90;;;;;;5006729;28;20676;-86
2021/01/07 08:50:11;;;;;;;2.47;0.73;;;4.00;99.90;;;;;;5002734;28;20183;-86
2021/01/07 08:52:56;;;;;;;0.50;0.50;;;4.10;99.90;;;;;;5000457;28;20698;-87
2021/01/07 08:55:48;;;;;;;0.67;0.67;;;4.10;99.90;;;;;;5005931;28;20185;-86
2021/01/07 08:58:24;;;;;;;0.57;0.57;;;4.00;99.90;;;;;;5012269;28;20555;-85
2021/01/07 09:00:51;;;;;;;0.43;0.33;;;4.00;99.90;;;;;;5004001;28;20203;-86
2021/01/07 09:03:17;;;;;;;0.50;0.20;;;4.00;99.90;;;;;;4999817;28;20183;-87
2021/01/07 09:05:43;;;;;;;0.50;0.50;;;4.10;99.90;;;;;;5002295;28;20172;-86
2021/01/07 09:08:10;;;;;;;0.13;0.13;;;4.10;99.90;;;;;;4993286;28;20262;-85
2021/01/07 09:10:36;;;;;;;1.10;0.43;;;4.00;99.90;;;;;;4997524;28;20180;-85
2021/01/07 09:13:22;;;;;;;0.20;0.20;;;4.00;99.90;;;;;;4997608;28;20591;-85
2021/01/07 09:15:49;;;;;;;0.70;0.70;;;4.00;99.90;;;;;;5005535;28;20184;-85
2021/01/07 09:18:20;;;;;;;0.20;0.20;;;4.10;99.90;;;;;;4994844;28;20195;-86
2021/01/07 09:20:46;;;;;;;0.13;0.13;;;4.10;99.90;;;;;;5000776;28;20180;-85
2021/01/07 09:23:16;;;;;;;0.50;0.50;;;4.10;99.90;;;;;;5011584;28;20239;-86
2021/01/07 09:25:43;;;;;;;0.60;0.43;;;4.20;99.90;;;;;;5009974;28;20171;-86
2021/01/07 09:28:09;;;;;;;0.60;0.60;;;4.20;99.90;;;;;;5008923;28;20239;-85
2021/01/07 09:30:34;;;;;;;0.53;0.53;;;4.20;99.90;;;;;;5007062;28;20184;-86
2021/01/07 09:33:01;;;;;;;0.20;0.20;;;4.30;99.90;;;;;;5021518;28;20204;-86
2021/01/07 09:35:27;;;;;;;0.73;0.47;;;4.40;99.90;;;;;;5014016;28;20197;-86
2021/01/07 09:37:53;;;;;;;1.23;0.43;;;4.40;99.90;;;;;;5006683;28;20651;-85
2021/01/07 09:40:19;;;;;;;0.10;0.10;;;4.40;99.90;;;;;;5003210;28;20183;-86
2021/01/07 09:42:44;;;;;;;0.20;0.20;;;4.50;99.90;;;;;;5004038;28;20265;-85
2021/01/07 09:45:11;;;;;;;0.53;0.53;;;4.40;99.90;;;;;;5004595;28;20190;-86
2021/01/07 09:47:37;;;;;;;0.43;0.43;;;4.40;99.90;;;;;;5001695;28;20556;-86
2021/01/07 09:50:11;;;;;;;0.60;0.40;;;4.40;99.90;;;;;;5002516;28;20237;-85
2021/01/07 09:52:37;;;;;;;0.80;0.80;;;4.40;99.90;;;;;;5001963;28;20297;-86
2021/01/07 09:55:04;;;;;;;3.60;0.60;;;4.40;99.90;;;;;;5006478;28;20239;-85
2021/01/07 09:57:30;;;;;;;0.30;0.30;;;4.30;99.90;;;;;;4999143;28;20271;-87
2021/01/07 09:59:55;;;;;;;0.47;0.47;;;4.30;99.90;;;;;;5006811;28;20218;-86
2021/01/07 10:02:21;;;;;;;0.47;0.47;;;4.30;99.90;;;;;;5005841;28;20214;-86
2021/01/07 10:04:46;;;;;;;0.37;0.27;;;4.30;99.90;;;;;;5006714;28;20184;-85
2021/01/07 10:07:13;;;;;;;4.00;1.20;;;4.30;99.90;;;;;;5005214;28;20188;-85
2021/01/07 10:09:39;;;;;;;0.20;0.20;;;4.30;99.90;;;;;;5004470;28;20241;-85
2021/01/07 10:12:06;;;;;;;0.40;0.27;;;4.30;99.90;;;;;;5001194;28;20214;-85
2021/01/07 10:14:32;;;;;;;0.33;0.33;;;4.30;99.90;;;;;;5003217;28;20624;-84
2021/01/07 10:17:00;;;;;;;0.37;0.37;;;4.30;99.90;;;;;;5004491;28;20198;-85
2021/01/07 10:19:28;;;;;;;0.97;0.83;;;4.30;99.90;;;;;;5005397;28;20183;-85
2021/01/07 10:22:04;;;;;;;1.20;0.50;;;4.30;99.90;;;;;;4998798;28;20246;-85
2021/01/07 10:24:31;;;;;;;0.23;0.23;;;4.30;99.90;;;;;;5005547;28;20583;-85
2021/01/07 10:27:07;;;;;;;0.30;0.30;;;4.30;99.90;;;;;;5005614;28;20215;-84
2021/01/07 10:29:34;;;;;;;0.63;0.63;;;4.30;99.90;;;;;;5003752;28;20181;-85
2021/01/07 10:32:10;;;;;;;0.30;0.30;;;4.30;99.90;;;;;;5006030;28;20219;-84
2021/01/07 10:34:39;;;;;;;0.20;0.20;;;4.30;99.90;;;;;;5005287;28;20232;-85
2021/01/07 10:37:07;;;;;;;0.43;0.43;;;4.20;99.90;;;;;;5001575;28;20182;-85
2021/01/07 10:39:34;;;;;;;1.23;0.53;;;4.20;99.90;;;;;;5001258;28;20667;-85
2021/01/07 10:42:00;;;;;;;1.17;0.80;;;4.20;99.90;;;;;;5003420;28;20222;-85
2021/01/07 10:44:28;;;;;;;0.97;0.97;;;4.20;99.90;;;;;;5005120;28;20175;-85
2021/01/07 10:47:00;;;;;;;1.40;0.67;;;4.30;99.90;;;;;;4994601;28;20257;-86
2021/01/07 10:49:30;;;;;;;0.60;0.43;;;4.20;99.90;;;;;;5002100;28;20180;-85
2021/01/07 10:52:08;;;;;;;0.47;0.47;;;4.20;99.90;;;;;;5014285;28;20563;-84
2021/01/07 10:54:49;;;;;;;0.40;0.40;;;4.20;99.90;;;;;;5004552;28;20183;-85
2021/01/07 10:57:36;;;;;;;1.43;0.53;;;4.20;99.90;;;;;;5009274;28;20625;-84
2021/01/07 11:00:13;;;;;;;0.23;0.23;;;4.20;99.90;;;;;;4999557;28;20188;-86
2021/01/07 11:02:59;;;;;;;1.00;0.97;;;4.20;99.90;;;;;;5009487;28;20212;-86
2021/01/07 11:05:51;;;;;;;0.10;0.10;;;4.20;99.90;;;;;;5001279;28;20180;-87
2021/01/07 11:08:29;;;;;;;2.37;0.93;;;4.10;99.90;;;;;;5010157;28;20724;-86
2021/01/07 11:10:58;;;;;;;0.20;0.20;;;4.10;99.90;;;;;;5011771;28;20183;-86
2021/01/07 11:13:50;;;;;;;1.97;1.17;;;4.10;99.90;;;;;;5011746;28;20227;-86
2021/01/07 11:16:26;;;;;;;0.93;0.77;;;4.10;99.90;;;;;;5014392;28;20191;-86
2021/01/07 11:18:56;;;;;;;2.27;0.47;;;4.20;99.90;;;;;;5007849;28;20187;-86
2021/01/07 11:21:26;;;;;;;0.43;0.40;;;4.20;99.90;;;;;;5001434;28;20238;-86
2021/01/07 11:23:52;;;;;;;1.10;0.77;;;4.30;99.90;;;;;;4996533;28;20182;-87
2021/01/07 11:26:19;;;;;;;0.93;0.80;;;4.30;99.90;;;;;;5005476;28;20182;-86
2021/01/07 11:28:45;;;;;;;0.30;0.30;;;4.30;99.90;;;;;;5005135;28;20318;-87
2021/01/07 11:31:14;;;;;;;0.20;0.20;;;4.30;99.90;;;;;;5001767;28;20215;-86
2021/01/07 11:33:40;;;;;;;1.20;0.50;;;4.40;99.90;;;;;;5008826;28;20188;-86
2021/01/07 11:36:11;;;;;;;0.40;0.40;;;4.40;99.90;;;;;;5001692;28;20556;-87
2021/01/07 11:38:44;;;;;;;0.37;0.37;;;4.40;99.90;;;;;;5008684;28;20594;-86
2021/01/07 11:41:39;;;;;;;0.60;0.60;;;4.40;99.90;;;;;;5004248;28;20917;-87
2021/01/07 11:44:20;;;;;;;1.03;0.93;;;4.40;99.90;;;;;;5010523;28;20196;-87
2021/01/07 11:46:48;;;;;;;1.17;0.60;;;4.50;99.90;;;;;;5003363;28;20541;-86
2021/01/07 11:49:18;;;;;;;1.87;0.67;;;4.40;99.90;;;;;;5005630;28;20342;-86
2021/01/07 11:51:51;;;;;;;0.40;0.30;;;4.40;99.90;;;;;;5008375;28;20692;-86
2021/01/07 11:54:18;;;;;;;0.50;0.50;;;4.50;99.90;;;;;;5003806;28;20188;-87
2021/01/07 11:56:47;;;;;;;0.33;0.30;;;4.50;99.90;;;;;;5005766;28;20192;-86
2021/01/07 11:59:16;;;;;;;1.40;0.20;;;4.50;99.90;;;;;;5002691;28;20185;-87
2021/01/07 12:01:42;;;;;;;1.13;1.00;;;4.50;99.90;;;;;;4995885;28;20207;-86
2021/01/07 12:04:12;;;;;;;0.37;0.37;;;4.60;99.90;;;;;;5011729;28;20234;-86
2021/01/07 12:06:45;;;;;;;0.63;0.63;;;4.60;99.90;;;;;;5005404;28;20566;-87
2021/01/07 12:09:23;;;;;;;0.53;0.43;;;4.60;99.90;;;;;;5009496;28;20692;-86
2021/01/07 12:12:00;;;;;;;0.20;0.20;;;4.60;99.90;;;;;;5004542;28;20690;-87
2021/01/07 12:14:29;;;;;;;0.13;0.13;;;4.50;99.90;;;;;;5006772;28;20183;-87
2021/01/07 12:17:03;;;;;;;0.40;0.40;;;4.60;99.90;;;;;;4999579;28;20211;-86
2021/01/07 12:19:32;;;;;;;1.40;0.60;;;4.60;99.90;;;;;;5005461;28;20186;-86
2021/01/07 12:22:00;;;;;;;0.20;0.20;;;4.60;99.90;;;;;;4998314;28;20207;-87
2021/01/07 12:24:30;;;;;;;1.00;0.83;;;4.60;99.90;;;;;;4995458;28;21836;-86
2021/01/07 12:26:56;;;;;;;0.90;0.90;;;4.60;99.90;;;;;;5001440;28;20272;-87
2021/01/07 12:29:26;;;;;;;0.57;0.50;;;4.60;99.90;;;;;;4998749;28;20211;-86
2021/01/07 12:31:57;;;;;;;0.30;0.30;;;4.70;99.90;;;;;;5023234;28;20205;-86
2021/01/07 12:35:07;;;;;;;0.73;0.73;;;4.70;99.90;;;;;;5008345;28;20237;-86
2021/01/07 12:37:53;;;;;;;0.57;0.40;;;4.80;99.90;;;;;;4999061;28;20188;-84
2021/01/07 12:40:21;;;;;;;1.17;0.97;;;4.80;99.90;;;;;;4999520;28;20207;-85
2021/01/07 12:42:54;;;;;;;1.87;1.17;;;4.80;99.90;;;;;;5007082;28;20729;-84
2021/01/07 12:45:20;;;;;;;0.67;0.67;;;4.80;99.90;;;;;;4998974;28;20184;-84
2021/01/07 12:47:46;;;;;;;2.30;0.20;;;4.80;99.90;;;;;;4994438;28;20200;-83
2021/01/07 12:50:13;;;;;;;0.43;0.30;;;4.90;99.90;;;;;;4994556;28;20176;-83
2021/01/07 12:52:39;;;;;;;1.80;0.40;;;4.90;99.90;;;;;;4997852;28;20214;-84
2021/01/07 12:55:08;;;;;;;1.03;0.77;;;4.90;99.90;;;;;;5005170;28;20207;-84
2021/01/07 12:58:13;;;;;;;0.70;0.63;;;4.80;99.90;;;;;;5006968;28;20194;-83
2021/01/07 13:00:47;;;;;;;0.17;0.17;;;4.90;99.90;;;;;;4997511;28;20180;-83
2021/01/07 13:03:33;;;;;;;2.83;0.63;;;4.90;99.90;;;;;;4996007;28;20323;-84
2021/01/07 13:06:01;;;;;;;0.40;0.40;;;4.90;99.90;;;;;;5006098;28;20191;-85